createdAt,value
2018-09-10T00:01:28.745Z,2.80
2018-09-10T00:04:00.817Z,2.70
2018-09-10T00:06:32.812Z,3.43
2018-09-10T00:09:07.070Z,3.23
2018-09-10T00:11:39.077Z,3.00
2018-09-10T00:14:11.198Z,3.27
2018-09-10T00:16:43.299Z,3.57
2018-09-10T00:19:15.309Z,3.00
2018-09-10T00:21:47.310Z,3.57
2018-09-10T00:24:19.339Z,4.03
2018-09-10T00:26:51.370Z,3.27
2018-09-10T00:29:23.413Z,3.27
2018-09-10T00:31:55.473Z,3.07
2018-09-10T00:34:27.482Z,3.13
2018-09-10T00:36:59.490Z,3.50
2018-09-10T00:39:31.878Z,3.10
2018-09-10T00:42:03.937Z,3.00
2018-09-10T00:44:35.962Z,3.00
2018-09-10T00:47:07.989Z,2.97
2018-09-10T00:49:40.069Z,3.83
2018-09-10T00:52:12.169Z,3.37
2018-09-10T00:54:44.265Z,3.23
2018-09-10T00:57:16.261Z,3.17
2018-09-10T00:59:48.358Z,3.87
2018-09-10T01:02:20.686Z,2.90
2018-09-10T01:04:52.690Z,3.20
2018-09-10T01:07:24.710Z,3.30
2018-09-10T01:09:56.721Z,3.03
2018-09-10T01:12:28.746Z,3.43
2018-09-10T01:15:00.747Z,2.90
2018-09-10T01:17:32.776Z,2.60
2018-09-10T01:20:04.810Z,3.40
2018-09-10T01:22:36.933Z,2.70
2018-09-10T01:25:08.998Z,2.80
2018-09-10T01:27:41.137Z,3.30
2018-09-10T01:30:13.178Z,3.50
2018-09-10T01:32:45.244Z,3.23
2018-09-10T01:35:17.290Z,3.07
2018-09-10T01:37:49.338Z,3.10
2018-09-10T01:40:21.397Z,3.73
2018-09-10T01:42:53.526Z,3.03
2018-09-10T01:45:25.558Z,3.73
2018-09-10T01:47:57.610Z,3.27
2018-09-10T01:50:29.642Z,3.60
2018-09-10T01:53:01.694Z,3.53
2018-09-10T01:55:33.714Z,3.00
2018-09-10T01:58:05.764Z,2.73
2018-09-10T02:00:37.846Z,2.97
2018-09-10T02:03:09.988Z,3.13
2018-09-10T02:05:42.179Z,3.30
2018-09-10T02:08:14.220Z,2.83
2018-09-10T02:10:46.281Z,2.90
2018-09-10T02:13:18.346Z,2.90
2018-09-10T02:15:51.345Z,3.37
2018-09-10T02:18:23.374Z,2.83
2018-09-10T02:20:55.406Z,2.90
2018-09-10T02:23:27.486Z,3.60
2018-09-10T02:25:59.518Z,3.20
2018-09-10T02:28:32.591Z,3.77
2018-09-10T02:31:05.263Z,3.80
2018-09-10T02:33:37.290Z,2.80
2018-09-10T02:36:09.316Z,3.40
2018-09-10T02:38:41.435Z,3.40
2018-09-10T02:41:13.449Z,3.30
2018-09-10T02:43:45.470Z,4.03
2018-09-10T02:46:17.493Z,2.87
2018-09-10T02:48:49.537Z,3.57
2018-09-10T02:51:21.654Z,3.10
2018-09-10T02:53:53.685Z,3.53
2018-09-10T02:56:25.730Z,3.70
2018-09-10T02:58:57.925Z,2.90
2018-09-10T03:01:30.014Z,3.43
2018-09-10T03:04:02.127Z,3.60
2018-09-10T03:06:34.178Z,3.60
2018-09-10T03:09:07.175Z,3.43
2018-09-10T03:11:39.203Z,3.73
2018-09-10T03:14:11.262Z,3.80
2018-09-10T03:16:43.315Z,3.63
2018-09-10T03:19:15.350Z,4.60
2018-09-10T03:21:47.352Z,4.10
2018-09-10T03:24:19.435Z,3.73
2018-09-10T03:26:51.474Z,4.00
2018-09-10T03:29:23.555Z,3.80
2018-09-10T03:31:55.598Z,3.83
2018-09-10T03:34:27.618Z,3.87
2018-09-10T03:36:59.693Z,3.67
2018-09-10T03:39:31.710Z,3.90
2018-09-10T03:42:03.735Z,4.60
2018-09-10T03:44:35.760Z,3.87
2018-09-10T03:47:07.834Z,3.60
2018-09-10T03:49:39.854Z,4.53
2018-09-10T03:52:11.861Z,3.80
2018-09-10T03:54:43.883Z,3.87
2018-09-10T03:57:15.957Z,3.70
2018-09-10T03:59:48.004Z,4.30
2018-09-10T04:02:20.026Z,5.03
2018-09-10T04:04:52.585Z,3.63
2018-09-10T04:07:24.700Z,3.70
2018-09-10T04:09:56.761Z,3.70
2018-09-10T04:12:28.802Z,3.90
2018-09-10T04:15:00.859Z,3.60
2018-09-10T04:17:32.982Z,3.83
2018-09-10T04:20:10.956Z,4.47
2018-09-10T04:22:42.950Z,4.03
2018-09-10T04:25:14.964Z,3.97
2018-09-10T04:27:47.007Z,4.17
2018-09-10T04:30:19.031Z,4.27
2018-09-10T04:32:51.028Z,4.20
2018-09-10T04:35:23.060Z,4.00
2018-09-10T04:37:55.039Z,3.57
2018-09-10T04:40:27.106Z,4.73
2018-09-10T04:42:59.487Z,4.63
2018-09-10T04:45:31.570Z,5.80
2018-09-10T04:48:03.617Z,3.77
2018-09-10T04:50:35.657Z,3.57
2018-09-10T04:53:07.694Z,3.57
2018-09-10T04:55:39.787Z,3.77
2018-09-10T04:58:11.803Z,3.90
2018-09-10T05:00:43.851Z,3.63
2018-09-10T05:03:15.889Z,4.53
2018-09-10T05:05:47.954Z,3.90
2018-09-10T05:08:19.947Z,3.50
2018-09-10T05:10:52.053Z,4.00
2018-09-10T05:13:24.080Z,3.87
2018-09-10T05:15:56.116Z,4.23
2018-09-10T05:18:28.146Z,4.87
2018-09-10T05:21:00.157Z,4.53
2018-09-10T05:23:32.146Z,4.33
2018-09-10T05:26:04.151Z,3.83
2018-09-10T05:28:36.173Z,4.63
2018-09-10T05:31:08.195Z,4.43
2018-09-10T05:33:40.198Z,3.40
2018-09-10T05:36:12.241Z,4.17
2018-09-10T05:38:44.251Z,5.03
2018-09-10T05:41:16.264Z,4.13
2018-09-10T05:43:48.266Z,8.47
2018-09-10T05:46:20.289Z,4.43
2018-09-10T05:48:52.305Z,3.67
2018-09-10T05:51:24.390Z,22.20
2018-09-10T05:53:56.417Z,21.53
2018-09-10T05:56:28.486Z,28.70
2018-09-10T05:59:00.503Z,30.50
2018-09-10T06:01:32.495Z,21.33
2018-09-10T06:04:04.505Z,12.93
2018-09-10T06:06:36.571Z,7.17
2018-09-10T06:09:08.618Z,4.77
2018-09-10T06:11:40.637Z,10.57
2018-09-10T06:14:12.798Z,5.17
2018-09-10T06:16:44.853Z,4.03
2018-09-10T06:19:16.875Z,3.70
2018-09-10T06:21:48.915Z,4.23
2018-09-10T06:24:21.001Z,3.33
2018-09-10T06:26:53.044Z,3.07
2018-09-10T06:29:25.097Z,2.93
2018-09-10T06:31:57.061Z,3.63
2018-09-10T06:34:29.083Z,3.43
2018-09-10T06:37:01.140Z,3.40
2018-09-10T06:39:33.193Z,3.57
2018-09-10T06:42:05.263Z,5.00
2018-09-10T06:44:37.246Z,6.20
2018-09-10T06:47:09.310Z,6.08
2018-09-10T06:49:41.391Z,4.45
2018-09-10T06:52:13.456Z,3.87
2018-09-10T06:54:45.512Z,3.40
2018-09-10T06:57:17.554Z,3.72
2018-09-10T06:59:49.562Z,3.20
2018-09-10T07:02:21.596Z,2.77
2018-09-10T07:04:53.641Z,2.52
2018-09-10T07:07:25.713Z,2.72
2018-09-10T07:09:57.750Z,2.87
2018-09-10T07:12:29.791Z,2.67
2018-09-10T07:15:01.818Z,2.65
2018-09-10T07:17:33.918Z,2.35
2018-09-10T07:20:06.886Z,2.30
2018-09-10T07:22:38.918Z,2.40
2018-09-10T07:25:10.968Z,3.08
2018-09-10T07:27:42.978Z,2.62
2018-09-10T07:30:15.016Z,2.35
2018-09-10T07:32:47.075Z,2.20
2018-09-10T07:35:19.255Z,2.15
2018-09-10T07:37:51.275Z,2.47
2018-09-10T07:40:23.279Z,2.65
2018-09-10T07:42:55.322Z,2.40
2018-09-10T07:45:27.367Z,2.87
2018-09-10T07:47:59.425Z,2.52
2018-09-10T07:50:31.503Z,2.08
2018-09-10T07:53:03.532Z,2.40
2018-09-10T07:55:35.557Z,2.02
2018-09-10T07:58:07.639Z,2.30
2018-09-10T08:00:39.688Z,2.50
2018-09-10T08:03:11.682Z,2.67
2018-09-10T08:05:43.674Z,2.40
2018-09-10T08:08:15.682Z,2.08
2018-09-10T08:10:47.743Z,2.10
2018-09-10T08:13:19.822Z,2.05
2018-09-10T08:15:51.822Z,2.02
2018-09-10T08:18:23.909Z,2.45
2018-09-10T08:20:55.954Z,1.95
2018-09-10T08:23:28.018Z,2.10
2018-09-10T08:26:00.153Z,2.10
2018-09-10T08:28:32.170Z,2.10
2018-09-10T08:31:04.189Z,1.85
2018-09-10T08:33:36.218Z,1.87
2018-09-10T08:36:08.312Z,1.92
2018-09-10T08:38:40.505Z,2.25
2018-09-10T08:41:12.487Z,2.10
2018-09-10T08:43:44.583Z,1.95
2018-09-10T08:46:16.610Z,2.02
2018-09-10T08:48:48.659Z,2.72
2018-09-10T08:51:20.650Z,2.58
2018-09-10T08:53:52.742Z,2.27
2018-09-10T08:56:24.882Z,1.70
2018-09-10T08:58:56.882Z,2.47
2018-09-10T09:01:29.119Z,2.15
2018-09-10T09:04:01.134Z,2.15
2018-09-10T09:06:33.125Z,2.02
2018-09-10T09:09:06.577Z,1.70
2018-09-10T09:11:38.606Z,2.00
2018-09-10T09:14:10.649Z,2.42
2018-09-10T09:16:42.806Z,2.60
2018-09-10T09:19:14.809Z,2.12
2018-09-10T09:21:46.877Z,1.72
2018-09-10T09:24:18.927Z,2.20
2018-09-10T09:26:50.941Z,2.37
2018-09-10T09:29:23.046Z,2.37
2018-09-10T09:32:00.069Z,1.80
2018-09-10T09:34:38.037Z,2.67
2018-09-10T09:37:15.876Z,1.92
2018-09-10T09:39:53.745Z,1.87
2018-09-10T09:42:31.651Z,1.87
2018-09-10T09:45:09.512Z,1.82
2018-09-10T09:47:41.543Z,2.30
2018-09-10T09:50:13.534Z,2.00
2018-09-10T09:52:45.641Z,2.02
2018-09-10T09:55:17.667Z,1.90
2018-09-10T09:57:49.686Z,2.27
2018-09-10T10:01:00.476Z,1.80
2018-09-10T10:03:38.284Z,1.67
2018-09-10T10:06:10.310Z,2.35
2018-09-10T10:08:42.334Z,2.65
2018-09-10T10:11:14.383Z,2.45
2018-09-10T10:13:46.393Z,1.80
2018-09-10T10:16:18.474Z,2.08
2018-09-10T10:18:50.447Z,1.70
2018-09-10T10:21:22.490Z,1.70
2018-09-10T10:23:54.517Z,1.47
2018-09-10T10:26:26.583Z,1.90
2018-09-10T10:28:58.651Z,2.25
2018-09-10T10:31:30.729Z,1.70
2018-09-10T10:34:02.762Z,1.40
2018-09-10T10:36:35.061Z,1.95
2018-09-10T10:39:07.669Z,1.98
2018-09-10T10:41:39.732Z,1.95
2018-09-10T10:44:11.815Z,2.10
2018-09-10T10:46:43.850Z,1.75
2018-09-10T10:49:15.990Z,1.50
2018-09-10T10:51:48.034Z,1.50
2018-09-10T10:54:20.083Z,2.00
2018-09-10T10:56:52.136Z,2.50
2018-09-10T10:59:24.178Z,1.32
2018-09-10T11:01:56.233Z,1.98
2018-09-10T11:04:28.284Z,1.75
2018-09-10T11:07:00.382Z,1.52
2018-09-10T11:09:32.436Z,1.47
2018-09-10T11:12:04.527Z,1.70
2018-09-10T11:14:36.581Z,1.67
2018-09-10T11:17:08.684Z,1.47
2018-09-10T11:19:40.695Z,1.60
2018-09-10T11:22:12.723Z,1.52
2018-09-10T11:24:44.866Z,1.50
2018-09-10T11:27:17.016Z,1.45
2018-09-10T11:29:49.132Z,1.40
2018-09-10T11:32:21.187Z,1.87
2018-09-10T11:34:53.252Z,1.82
2018-09-10T11:37:25.357Z,1.35
2018-09-10T11:39:57.451Z,1.40
2018-09-10T11:42:29.568Z,1.52
2018-09-10T11:45:01.616Z,1.45
2018-09-10T11:47:33.734Z,1.32
2018-09-10T11:50:05.846Z,2.00
2018-09-10T11:52:37.971Z,1.40
2018-09-10T11:55:09.968Z,1.40
2018-09-10T11:57:42.057Z,1.55
2018-09-10T12:00:14.132Z,1.30
2018-09-10T12:02:46.220Z,1.32
2018-09-10T12:05:18.287Z,1.60
2018-09-10T12:07:50.334Z,1.70
2018-09-10T12:10:22.362Z,1.77
2018-09-10T12:12:54.381Z,1.80
2018-09-10T12:15:26.570Z,1.25
2018-09-10T12:17:58.568Z,1.07
2018-09-10T12:20:30.597Z,1.72
2018-09-10T12:23:02.658Z,1.70
2018-09-10T12:25:34.706Z,2.40
2018-09-10T12:28:06.726Z,1.60
2018-09-10T12:30:38.759Z,2.27
2018-09-10T12:33:10.765Z,1.72
2018-09-10T12:35:42.852Z,1.50
2018-09-10T12:38:14.868Z,2.12
2018-09-10T12:40:46.897Z,1.60
2018-09-10T12:43:18.882Z,1.20
2018-09-10T12:45:51.051Z,1.32
2018-09-10T12:48:23.156Z,1.98
2018-09-10T12:50:55.228Z,1.52
2018-09-10T12:53:27.323Z,1.52
2018-09-10T12:55:59.429Z,2.22
2018-09-10T12:58:31.536Z,1.72
2018-09-10T13:01:03.598Z,1.50
2018-09-10T13:03:35.646Z,1.67
2018-09-10T13:06:07.652Z,2.00
2018-09-10T13:08:40.353Z,1.35
2018-09-10T13:11:12.854Z,1.70
2018-09-10T13:13:44.879Z,1.40
2018-09-10T13:16:16.916Z,1.60
2018-09-10T13:18:48.947Z,1.40
2018-09-10T13:21:20.939Z,1.40
2018-09-10T13:23:52.954Z,1.87
2018-09-10T13:26:24.993Z,1.47
2018-09-10T13:28:57.032Z,1.98
2018-09-10T13:31:29.017Z,1.82
2018-09-10T13:34:01.261Z,1.95
2018-09-10T13:36:33.353Z,1.70
2018-09-10T13:39:06.092Z,1.70
2018-09-10T13:41:38.107Z,2.02
2018-09-10T13:44:10.177Z,1.40
2018-09-10T13:46:42.450Z,1.77
2018-09-10T13:49:14.603Z,2.05
2018-09-10T13:51:46.863Z,1.92
2018-09-10T13:54:18.934Z,1.37
2018-09-10T13:56:51.018Z,1.62
2018-09-10T13:59:23.105Z,1.70
2018-09-10T14:01:55.474Z,1.92
2018-09-10T14:04:27.702Z,1.67
2018-09-10T14:06:59.722Z,2.17
2018-09-10T14:09:31.792Z,2.12
2018-09-10T14:12:03.845Z,1.50
2018-09-10T14:14:35.924Z,1.62
2018-09-10T14:17:07.946Z,1.72
2018-09-10T14:19:39.984Z,1.60
2018-09-10T14:22:12.017Z,1.70
2018-09-10T14:24:44.120Z,1.40
2018-09-10T14:27:16.164Z,1.90
2018-09-10T14:29:48.181Z,2.45
2018-09-10T14:32:20.350Z,1.65
2018-09-10T14:34:52.409Z,1.87
2018-09-10T14:37:24.647Z,1.80
2018-09-10T14:39:56.641Z,2.05
2018-09-10T14:42:28.687Z,2.47
2018-09-10T14:45:00.779Z,2.25
2018-09-10T14:47:32.833Z,2.00
2018-09-10T14:50:04.931Z,1.35
2018-09-10T14:52:37.001Z,2.00
2018-09-10T14:55:09.019Z,2.20
2018-09-10T14:57:41.062Z,2.20
2018-09-10T15:00:19.067Z,2.17
2018-09-10T15:02:51.092Z,1.95
2018-09-10T15:05:23.115Z,2.22
2018-09-10T15:07:55.211Z,2.65
2018-09-10T15:10:27.282Z,2.02
2018-09-10T15:12:59.314Z,2.72
2018-09-10T15:15:31.378Z,1.77
2018-09-10T15:18:03.409Z,2.27
2018-09-10T15:20:35.455Z,1.92
2018-09-10T15:23:07.514Z,2.52
2018-09-10T15:25:39.526Z,2.10
2018-09-10T15:28:11.576Z,2.80
2018-09-10T15:30:43.558Z,2.92
2018-09-10T15:33:15.590Z,2.40
2018-09-10T15:35:47.703Z,3.25
2018-09-10T15:38:19.729Z,3.45
2018-09-10T15:40:51.794Z,2.45
2018-09-10T15:43:23.825Z,2.00
2018-09-10T15:45:55.906Z,1.75
2018-09-10T15:48:27.951Z,2.40
2018-09-10T15:50:59.964Z,2.55
2018-09-10T15:53:36.957Z,3.40
2018-09-10T15:56:09.000Z,2.27
2018-09-10T15:58:41.071Z,1.90
2018-09-10T16:01:13.169Z,1.90
2018-09-10T16:03:45.208Z,1.60
2018-09-10T16:06:17.193Z,2.00
2018-09-10T16:08:49.234Z,2.62
2018-09-10T16:11:21.238Z,3.30
2018-09-10T16:13:53.259Z,2.85
2018-09-10T16:16:25.238Z,2.50
2018-09-10T16:18:57.321Z,2.95
2018-09-10T16:21:29.343Z,2.47
2018-09-10T16:24:02.211Z,2.52
2018-09-10T16:26:34.276Z,2.77
2018-09-10T16:29:06.934Z,2.80
2018-09-10T16:31:39.039Z,4.50
2018-09-10T16:34:11.044Z,2.70
2018-09-10T16:36:43.158Z,2.60
2018-09-10T16:39:15.237Z,2.40
2018-09-10T16:41:47.390Z,1.95
2018-09-10T16:44:20.456Z,2.27
2018-09-10T16:46:52.522Z,1.98
2018-09-10T16:49:24.630Z,1.85
2018-09-10T16:51:56.873Z,2.20
2018-09-10T16:54:29.076Z,2.50
2018-09-10T16:57:01.239Z,1.98
2018-09-10T16:59:33.302Z,2.20
2018-09-10T17:02:05.551Z,2.58
2018-09-10T17:04:37.564Z,1.98
2018-09-10T17:07:09.613Z,1.80
2018-09-10T17:09:41.647Z,2.20
2018-09-10T17:12:13.776Z,1.92
2018-09-10T17:14:45.770Z,1.95
2018-09-10T17:17:17.795Z,1.98
2018-09-10T17:19:49.835Z,1.80
2018-09-10T17:22:21.889Z,1.82
2018-09-10T17:24:53.910Z,1.70
2018-09-10T17:27:25.947Z,1.98
2018-09-10T17:29:58.069Z,2.00
2018-09-10T17:32:30.174Z,2.00
2018-09-10T17:35:02.569Z,2.80
2018-09-10T17:37:34.600Z,2.40
2018-09-10T17:40:06.851Z,1.98
2018-09-10T17:42:38.897Z,2.08
2018-09-10T17:45:10.954Z,2.65
2018-09-10T17:47:43.015Z,2.33
2018-09-10T17:50:15.082Z,3.12
2018-09-10T17:52:47.236Z,2.60
2018-09-10T17:55:19.362Z,2.47
2018-09-10T17:57:51.486Z,2.45
2018-09-10T18:00:23.668Z,2.52
2018-09-10T18:02:55.841Z,2.30
2018-09-10T18:05:27.873Z,2.50
2018-09-10T18:07:59.937Z,2.02
2018-09-10T18:10:31.982Z,2.30
2018-09-10T18:13:04.592Z,1.87
2018-09-10T18:15:36.683Z,2.17
2018-09-10T18:18:08.874Z,2.20
2018-09-10T18:20:41.134Z,2.57
2018-09-10T18:23:13.166Z,2.37
2018-09-10T18:25:45.181Z,2.17
2018-09-10T18:28:17.360Z,2.07
2018-09-10T18:30:49.407Z,2.30
2018-09-10T18:33:21.678Z,2.70
2018-09-10T18:35:53.711Z,2.15
2018-09-10T18:38:25.740Z,2.80
2018-09-10T18:40:57.752Z,2.53
2018-09-10T18:43:29.821Z,2.47
2018-09-10T18:46:01.891Z,2.57
2018-09-10T18:48:33.941Z,2.93
2018-09-10T18:51:06.114Z,2.50
2018-09-10T18:53:38.119Z,2.47
2018-09-10T18:56:10.264Z,2.87
2018-09-10T18:58:42.275Z,2.93
2018-09-10T19:01:14.583Z,2.63
2018-09-10T19:03:46.574Z,3.20
2018-09-10T19:06:18.597Z,3.10
2018-09-10T19:08:50.791Z,3.03
2018-09-10T19:11:22.817Z,3.00
2018-09-10T19:13:54.845Z,3.30
2018-09-10T19:16:26.870Z,2.83
2018-09-10T19:18:58.899Z,3.13
2018-09-10T19:21:30.949Z,2.93
2018-09-10T19:24:02.942Z,5.03
2018-09-10T19:26:34.973Z,6.83
2018-09-10T19:29:07.029Z,5.00
2018-09-10T19:31:39.069Z,2.90
2018-09-10T19:34:11.272Z,9.43
2018-09-10T19:36:43.781Z,4.00
2018-09-10T19:39:15.917Z,4.07
2018-09-10T19:41:47.930Z,2.90
2018-09-10T19:44:19.944Z,2.57
2018-09-10T19:46:52.018Z,2.53
2018-09-10T19:49:24.027Z,2.53
2018-09-10T19:51:56.084Z,4.43
2018-09-10T19:54:28.187Z,5.43
2018-09-10T19:57:00.271Z,3.57
2018-09-10T19:59:32.480Z,8.20
2018-09-10T20:02:04.538Z,2.80
2018-09-10T20:04:36.586Z,4.43
2018-09-10T20:07:08.690Z,2.10
2018-09-10T20:09:40.758Z,2.17
2018-09-10T20:12:12.762Z,2.80
2018-09-10T20:14:44.819Z,2.50
2018-09-10T20:17:16.813Z,2.30
2018-09-10T20:19:48.854Z,3.63
2018-09-10T20:22:20.935Z,2.70
2018-09-10T20:24:52.976Z,2.73
2018-09-10T20:27:25.062Z,2.90
2018-09-10T20:29:57.047Z,3.10
2018-09-10T20:32:29.090Z,3.10
2018-09-10T20:35:01.129Z,2.47
2018-09-10T20:37:33.386Z,3.83
2018-09-10T20:40:05.414Z,3.07
2018-09-10T20:42:37.475Z,2.90
2018-09-10T20:45:09.498Z,2.70
2018-09-10T20:47:41.789Z,2.50
2018-09-10T20:50:13.826Z,2.37
2018-09-10T20:52:45.834Z,2.80
2018-09-10T20:55:17.830Z,2.27
2018-09-10T20:57:49.866Z,4.03
2018-09-10T21:00:21.885Z,3.17
2018-09-10T21:02:53.932Z,3.73
2018-09-10T21:05:25.993Z,3.03
2018-09-10T21:07:58.026Z,3.50
2018-09-10T21:10:30.054Z,3.37
2018-09-10T21:13:02.173Z,4.30
2018-09-10T21:15:34.214Z,3.13
2018-09-10T21:18:06.246Z,3.27
2018-09-10T21:20:38.230Z,3.17
2018-09-10T21:23:10.306Z,3.73
2018-09-10T21:25:42.329Z,3.00
2018-09-10T21:28:14.334Z,3.40
2018-09-10T21:30:47.062Z,4.37
2018-09-10T21:33:19.075Z,3.73
2018-09-10T21:35:51.228Z,3.23
2018-09-10T21:38:23.237Z,2.90
2018-09-10T21:40:55.274Z,2.67
2018-09-10T21:43:27.372Z,2.53
2018-09-10T21:45:59.374Z,3.20
2018-09-10T21:48:31.431Z,3.10
2018-09-10T21:51:03.489Z,3.13
2018-09-10T21:53:35.806Z,3.10
2018-09-10T21:56:07.839Z,3.10
2018-09-10T21:58:39.902Z,3.30
2018-09-10T22:01:11.945Z,3.57
2018-09-10T22:03:43.973Z,3.70
2018-09-10T22:06:16.012Z,3.33
2018-09-10T22:08:48.105Z,3.07
2018-09-10T22:11:20.168Z,3.17
2018-09-10T22:13:52.166Z,3.07
2018-09-10T22:16:24.195Z,3.20
2018-09-10T22:18:56.228Z,3.53
2018-09-10T22:21:28.245Z,2.70
2018-09-10T22:24:00.308Z,2.97
2018-09-10T22:26:32.321Z,2.70
2018-09-10T22:29:04.470Z,2.70
2018-09-10T22:31:36.607Z,2.63
2018-09-10T22:34:08.774Z,2.40
2018-09-10T22:36:40.775Z,2.60
2018-09-10T22:39:14.007Z,2.10
2018-09-10T22:41:45.998Z,2.73
2018-09-10T22:44:18.139Z,2.80
2018-09-10T22:46:50.065Z,3.07
2018-09-10T22:49:22.152Z,3.30
2018-09-10T22:51:54.265Z,2.47
2018-09-10T22:54:26.292Z,3.83
2018-09-10T22:56:58.288Z,3.07
2018-09-10T22:59:30.349Z,2.97
2018-09-10T23:02:02.370Z,2.70
2018-09-10T23:04:34.393Z,3.00
2018-09-10T23:07:06.372Z,2.63
2018-09-10T23:09:38.391Z,2.90
2018-09-10T23:12:10.365Z,3.00
2018-09-10T23:14:42.386Z,2.97
2018-09-10T23:17:14.413Z,3.50
2018-09-10T23:19:46.733Z,3.27
2018-09-10T23:22:18.735Z,3.43
2018-09-10T23:24:50.749Z,3.60
2018-09-10T23:27:22.805Z,3.13
2018-09-10T23:29:54.835Z,3.93
2018-09-10T23:32:26.844Z,3.27
2018-09-10T23:34:58.866Z,3.67
2018-09-10T23:37:30.851Z,3.30
2018-09-10T23:40:03.122Z,3.33
2018-09-10T23:42:35.142Z,3.80
2018-09-10T23:45:07.279Z,3.60
2018-09-10T23:47:39.286Z,3.67
2018-09-10T23:50:11.303Z,3.10
2018-09-10T23:52:43.498Z,3.53
2018-09-10T23:55:15.523Z,3.40
2018-09-10T23:57:47.610Z,3.50
